sensor_id;sensor_type;location;lat;lon;timestamp;temperature;humidity
48551;DHT22;34397;51.176;6.738;2023-11-21T00:01:06;9.50;86.30
48551;DHT22;34397;51.176;6.738;2023-11-21T00:03:39;9.50;86.40
48551;DHT22;34397;51.176;6.738;2023-11-21T00:06:10;9.50;86.00
48551;DHT22;34397;51.176;6.738;2023-11-21T00:08:42;9.50;86.40
48551;DHT22;34397;51.176;6.738;2023-11-21T00:11:15;9.50;86.30
48551;DHT22;34397;51.176;6.738;2023-11-21T00:13:47;9.40;86.10
48551;DHT22;34397;51.176;6.738;2023-11-21T00:16:19;9.40;86.10
48551;DHT22;34397;51.176;6.738;2023-11-21T00:18:52;9.40;86.00
48551;DHT22;34397;51.176;6.738;2023-11-21T00:21:24;9.40;86.00
48551;DHT22;34397;51.176;6.738;2023-11-21T00:23:56;9.30;86.00
48551;DHT22;34397;51.176;6.738;2023-11-21T00:26:30;9.30;86.10
48551;DHT22;34397;51.176;6.738;2023-11-21T00:29:07;9.30;86.50
48551;DHT22;34397;51.176;6.738;2023-11-21T00:31:39;9.30;86.80
48551;DHT22;34397;51.176;6.738;2023-11-21T00:34:11;9.30;86.90
48551;DHT22;34397;51.176;6.738;2023-11-21T00:36:43;9.30;87.00
48551;DHT22;34397;51.176;6.738;2023-11-21T00:39:15;9.30;87.20
48551;DHT22;34397;51.176;6.738;2023-11-21T00:41:48;9.30;87.00
48551;DHT22;34397;51.176;6.738;2023-11-21T00:44:20;9.30;86.80
48551;DHT22;34397;51.176;6.738;2023-11-21T00:46:52;9.30;86.80
48551;DHT22;34397;51.176;6.738;2023-11-21T00:49:24;9.30;86.70
48551;DHT22;34397;51.176;6.738;2023-11-21T00:51:57;9.30;86.50
48551;DHT22;34397;51.176;6.738;2023-11-21T00:54:29;9.20;86.10
48551;DHT22;34397;51.176;6.738;2023-11-21T00:57:02;9.30;86.20
48551;DHT22;34397;51.176;6.738;2023-11-21T00:59:34;9.20;86.20
48551;DHT22;34397;51.176;6.738;2023-11-21T01:02:06;9.20;86.10
48551;DHT22;34397;51.176;6.738;2023-11-21T01:04:40;9.20;86.00
48551;DHT22;34397;51.176;6.738;2023-11-21T01:07:12;9.10;85.80
48551;DHT22;34397;51.176;6.738;2023-11-21T01:09:44;9.10;85.70
48551;DHT22;34397;51.176;6.738;2023-11-21T01:12:18;9.00;85.70
48551;DHT22;34397;51.176;6.738;2023-11-21T01:14:50;9.00;85.70
48551;DHT22;34397;51.176;6.738;2023-11-21T01:17:22;9.00;85.70
48551;DHT22;34397;51.176;6.738;2023-11-21T01:19:54;8.90;85.40
48551;DHT22;34397;51.176;6.738;2023-11-21T01:22:26;8.90;85.30
48551;DHT22;34397;51.176;6.738;2023-11-21T01:24:58;8.80;85.00
48551;DHT22;34397;51.176;6.738;2023-11-21T01:27:31;8.70;85.00
48551;DHT22;34397;51.176;6.738;2023-11-21T01:30:04;8.70;85.10
48551;DHT22;34397;51.176;6.738;2023-11-21T01:32:38;8.70;85.50
48551;DHT22;34397;51.176;6.738;2023-11-21T01:35:11;8.60;85.60
48551;DHT22;34397;51.176;6.738;2023-11-21T01:37:43;8.60;85.40
48551;DHT22;34397;51.176;6.738;2023-11-21T01:40:15;8.60;85.50
48551;DHT22;34397;51.176;6.738;2023-11-21T01:42:48;8.50;85.50
48551;DHT22;34397;51.176;6.738;2023-11-21T01:45:20;8.40;85.50
48551;DHT22;34397;51.176;6.738;2023-11-21T01:47:52;8.40;85.60
48551;DHT22;34397;51.176;6.738;2023-11-21T01:50:24;8.40;85.60
48551;DHT22;34397;51.176;6.738;2023-11-21T01:52:57;8.40;85.70
48551;DHT22;34397;51.176;6.738;2023-11-21T01:55:29;8.40;85.80
48551;DHT22;34397;51.176;6.738;2023-11-21T01:58:02;8.30;85.80
48551;DHT22;34397;51.176;6.738;2023-11-21T02:00:35;8.30;85.90
48551;DHT22;34397;51.176;6.738;2023-11-21T02:03:08;8.30;86.30
48551;DHT22;34397;51.176;6.738;2023-11-21T02:05:41;8.30;86.60
48551;DHT22;34397;51.176;6.738;2023-11-21T02:08:13;8.30;86.80
48551;DHT22;34397;51.176;6.738;2023-11-21T02:10:45;8.30;87.10
48551;DHT22;34397;51.176;6.738;2023-11-21T02:13:19;8.30;87.20
48551;DHT22;34397;51.176;6.738;2023-11-21T02:15:51;8.30;87.10
48551;DHT22;34397;51.176;6.738;2023-11-21T02:18:24;8.40;87.50
48551;DHT22;34397;51.176;6.738;2023-11-21T02:20:59;8.40;87.50
48551;DHT22;34397;51.176;6.738;2023-11-21T02:23:34;8.40;87.50
48551;DHT22;34397;51.176;6.738;2023-11-21T02:26:06;8.40;87.30
48551;DHT22;34397;51.176;6.738;2023-11-21T02:28:38;8.40;87.50
48551;DHT22;34397;51.176;6.738;2023-11-21T02:31:10;8.50;87.40
48551;DHT22;34397;51.176;6.738;2023-11-21T02:33:42;8.50;87.10
48551;DHT22;34397;51.176;6.738;2023-11-21T02:36:14;8.50;87.10
48551;DHT22;34397;51.176;6.738;2023-11-21T02:38:47;8.50;86.90
48551;DHT22;34397;51.176;6.738;2023-11-21T02:41:19;8.50;86.70
48551;DHT22;34397;51.176;6.738;2023-11-21T02:43:51;8.50;87.00
48551;DHT22;34397;51.176;6.738;2023-11-21T02:46:23;8.50;87.20
48551;DHT22;34397;51.176;6.738;2023-11-21T02:48:55;8.50;87.20
48551;DHT22;34397;51.176;6.738;2023-11-21T02:51:28;8.60;87.00
48551;DHT22;34397;51.176;6.738;2023-11-21T02:54:02;8.60;87.10
48551;DHT22;34397;51.176;6.738;2023-11-21T02:56:37;8.60;87.10
48551;DHT22;34397;51.176;6.738;2023-11-21T02:59:10;8.60;87.00
48551;DHT22;34397;51.176;6.738;2023-11-21T03:01:42;8.60;86.80
48551;DHT22;34397;51.176;6.738;2023-11-21T03:04:14;8.60;86.90
48551;DHT22;34397;51.176;6.738;2023-11-21T03:06:48;8.60;87.10
48551;DHT22;34397;51.176;6.738;2023-11-21T03:09:21;8.60;87.30
48551;DHT22;34397;51.176;6.738;2023-11-21T03:11:53;8.60;87.30
48551;DHT22;34397;51.176;6.738;2023-11-21T03:14:25;8.60;87.50
48551;DHT22;34397;51.176;6.738;2023-11-21T03:16:56;8.70;87.70
48551;DHT22;34397;51.176;6.738;2023-11-21T03:19:28;8.70;87.70
48551;DHT22;34397;51.176;6.738;2023-11-21T03:22:00;8.70;87.70
48551;DHT22;34397;51.176;6.738;2023-11-21T03:24:33;8.70;87.50
48551;DHT22;34397;51.176;6.738;2023-11-21T03:27:05;8.70;87.40
48551;DHT22;34397;51.176;6.738;2023-11-21T03:29:38;8.80;87.40
48551;DHT22;34397;51.176;6.738;2023-11-21T03:32:10;8.80;87.30
48551;DHT22;34397;51.176;6.738;2023-11-21T03:34:53;8.80;87.40
48551;DHT22;34397;51.176;6.738;2023-11-21T03:37:26;8.80;86.90
48551;DHT22;34397;51.176;6.738;2023-11-21T03:40:00;8.80;87.40
48551;DHT22;34397;51.176;6.738;2023-11-21T03:42:34;8.80;87.20
48551;DHT22;34397;51.176;6.738;2023-11-21T03:45:07;8.80;87.20
48551;DHT22;34397;51.176;6.738;2023-11-21T03:47:41;8.80;87.00
48551;DHT22;34397;51.176;6.738;2023-11-21T03:50:12;8.80;86.90
48551;DHT22;34397;51.176;6.738;2023-11-21T03:52:44;8.80;87.10
48551;DHT22;34397;51.176;6.738;2023-11-21T03:55:17;8.80;87.20
48551;DHT22;34397;51.176;6.738;2023-11-21T03:57:49;8.80;87.10
48551;DHT22;34397;51.176;6.738;2023-11-21T04:00:21;8.80;87.10
48551;DHT22;34397;51.176;6.738;2023-11-21T04:02:54;8.80;87.00
48551;DHT22;34397;51.176;6.738;2023-11-21T04:05:25;8.80;86.90
48551;DHT22;34397;51.176;6.738;2023-11-21T04:07:57;8.80;86.80
48551;DHT22;34397;51.176;6.738;2023-11-21T04:10:30;8.80;86.90
48551;DHT22;34397;51.176;6.738;2023-11-21T04:13:03;8.80;86.90
48551;DHT22;34397;51.176;6.738;2023-11-21T04:15:35;8.80;87.00
48551;DHT22;34397;51.176;6.738;2023-11-21T04:18:07;8.80;86.70
48551;DHT22;34397;51.176;6.738;2023-11-21T04:20:39;8.80;87.10
48551;DHT22;34397;51.176;6.738;2023-11-21T04:23:11;8.80;87.10
48551;DHT22;34397;51.176;6.738;2023-11-21T04:25:45;8.70;87.10
48551;DHT22;34397;51.176;6.738;2023-11-21T04:28:17;8.80;87.10
48551;DHT22;34397;51.176;6.738;2023-11-21T04:30:49;8.80;87.10
48551;DHT22;34397;51.176;6.738;2023-11-21T04:33:21;8.80;86.80
48551;DHT22;34397;51.176;6.738;2023-11-21T04:35:53;8.80;87.10
48551;DHT22;34397;51.176;6.738;2023-11-21T04:38:25;8.80;87.10
48551;DHT22;34397;51.176;6.738;2023-11-21T04:40:59;8.80;87.20
48551;DHT22;34397;51.176;6.738;2023-11-21T04:43:30;8.80;87.20
48551;DHT22;34397;51.176;6.738;2023-11-21T04:46:02;8.80;87.30
48551;DHT22;34397;51.176;6.738;2023-11-21T04:48:34;8.80;87.20
48551;DHT22;34397;51.176;6.738;2023-11-21T04:51:06;8.80;87.30
48551;DHT22;34397;51.176;6.738;2023-11-21T04:53:38;8.80;87.20
48551;DHT22;34397;51.176;6.738;2023-11-21T04:56:12;8.80;87.10
48551;DHT22;34397;51.176;6.738;2023-11-21T04:58:44;8.80;86.70
48551;DHT22;34397;51.176;6.738;2023-11-21T05:01:16;8.90;86.80
48551;DHT22;34397;51.176;6.738;2023-11-21T05:03:48;8.80;86.90
48551;DHT22;34397;51.176;6.738;2023-11-21T05:06:20;8.80;86.90
48551;DHT22;34397;51.176;6.738;2023-11-21T05:08:52;8.80;87.00
48551;DHT22;34397;51.176;6.738;2023-11-21T05:11:26;8.80;86.90
48551;DHT22;34397;51.176;6.738;2023-11-21T05:13:58;8.80;86.70
48551;DHT22;34397;51.176;6.738;2023-11-21T05:16:31;8.80;86.90
48551;DHT22;34397;51.176;6.738;2023-11-21T05:19:04;8.80;86.90
48551;DHT22;34397;51.176;6.738;2023-11-21T05:21:37;8.80;86.90
48551;DHT22;34397;51.176;6.738;2023-11-21T05:24:08;8.80;87.00
48551;DHT22;34397;51.176;6.738;2023-11-21T05:26:42;8.80;86.90
48551;DHT22;34397;51.176;6.738;2023-11-21T05:29:14;8.80;86.90
48551;DHT22;34397;51.176;6.738;2023-11-21T05:31:45;8.80;87.00
48551;DHT22;34397;51.176;6.738;2023-11-21T05:34:17;8.80;87.00
48551;DHT22;34397;51.176;6.738;2023-11-21T05:36:51;8.80;87.10
48551;DHT22;34397;51.176;6.738;2023-11-21T05:39:23;8.80;87.00
48551;DHT22;34397;51.176;6.738;2023-11-21T05:41:57;8.70;86.90
48551;DHT22;34397;51.176;6.738;2023-11-21T05:44:30;8.80;86.80
48551;DHT22;34397;51.176;6.738;2023-11-21T05:47:02;8.80;86.90
48551;DHT22;34397;51.176;6.738;2023-11-21T05:49:36;8.80;86.80
48551;DHT22;34397;51.176;6.738;2023-11-21T05:52:08;8.70;86.70
48551;DHT22;34397;51.176;6.738;2023-11-21T05:54:40;8.70;86.70
48551;DHT22;34397;51.176;6.738;2023-11-21T05:57:13;8.70;86.70
48551;DHT22;34397;51.176;6.738;2023-11-21T05:59:45;8.70;86.50
48551;DHT22;34397;51.176;6.738;2023-11-21T06:02:17;8.70;86.50
48551;DHT22;34397;51.176;6.738;2023-11-21T06:04:49;8.70;86.50
48551;DHT22;34397;51.176;6.738;2023-11-21T06:07:22;8.70;86.50
48551;DHT22;34397;51.176;6.738;2023-11-21T06:09:54;8.60;86.50
48551;DHT22;34397;51.176;6.738;2023-11-21T06:12:27;8.60;86.70
48551;DHT22;34397;51.176;6.738;2023-11-21T06:14:59;8.60;86.70
48551;DHT22;34397;51.176;6.738;2023-11-21T06:17:31;8.60;86.80
48551;DHT22;34397;51.176;6.738;2023-11-21T06:20:07;8.60;86.80
48551;DHT22;34397;51.176;6.738;2023-11-21T06:22:45;8.60;86.80
48551;DHT22;34397;51.176;6.738;2023-11-21T06:25:19;8.50;86.70
48551;DHT22;34397;51.176;6.738;2023-11-21T06:27:53;8.50;86.90
48551;DHT22;34397;51.176;6.738;2023-11-21T06:30:24;8.50;87.60
48551;DHT22;34397;51.176;6.738;2023-11-21T06:32:56;8.50;87.20
48551;DHT22;34397;51.176;6.738;2023-11-21T06:35:30;8.50;87.30
48551;DHT22;34397;51.176;6.738;2023-11-21T06:38:04;8.50;87.60
48551;DHT22;34397;51.176;6.738;2023-11-21T06:40:36;8.50;87.60
48551;DHT22;34397;51.176;6.738;2023-11-21T06:43:09;8.50;87.70
48551;DHT22;34397;51.176;6.738;2023-11-21T06:45:41;8.50;87.60
48551;DHT22;34397;51.176;6.738;2023-11-21T06:48:14;8.50;87.60
48551;DHT22;34397;51.176;6.738;2023-11-21T06:50:46;8.50;87.60
48551;DHT22;34397;51.176;6.738;2023-11-21T06:53:18;8.50;87.60
48551;DHT22;34397;51.176;6.738;2023-11-21T06:55:50;8.60;87.50
48551;DHT22;34397;51.176;6.738;2023-11-21T06:58:23;8.60;87.40
48551;DHT22;34397;51.176;6.738;2023-11-21T07:00:55;8.60;87.40
48551;DHT22;34397;51.176;6.738;2023-11-21T07:03:28;8.60;87.40
48551;DHT22;34397;51.176;6.738;2023-11-21T07:06:00;8.60;87.40
48551;DHT22;34397;51.176;6.738;2023-11-21T07:08:32;8.60;87.40
48551;DHT22;34397;51.176;6.738;2023-11-21T07:11:04;8.60;87.60
48551;DHT22;34397;51.176;6.738;2023-11-21T07:13:38;8.60;87.60
48551;DHT22;34397;51.176;6.738;2023-11-21T07:16:10;8.60;87.70
48551;DHT22;34397;51.176;6.738;2023-11-21T07:18:42;8.60;87.80
48551;DHT22;34397;51.176;6.738;2023-11-21T07:21:14;8.60;87.80
48551;DHT22;34397;51.176;6.738;2023-11-21T07:23:46;8.60;87.60
48551;DHT22;34397;51.176;6.738;2023-11-21T07:26:18;8.70;87.70
48551;DHT22;34397;51.176;6.738;2023-11-21T07:28:51;8.70;87.70
48551;DHT22;34397;51.176;6.738;2023-11-21T07:31:23;8.70;87.60
48551;DHT22;34397;51.176;6.738;2023-11-21T07:33:55;8.70;87.70
48551;DHT22;34397;51.176;6.738;2023-11-21T07:36:27;8.80;87.70
48551;DHT22;34397;51.176;6.738;2023-11-21T07:38:59;8.80;87.70
48551;DHT22;34397;51.176;6.738;2023-11-21T07:41:33;8.80;87.50
48551;DHT22;34397;51.176;6.738;2023-11-21T07:44:06;8.80;87.50
48551;DHT22;34397;51.176;6.738;2023-11-21T07:46:38;8.80;87.30
48551;DHT22;34397;51.176;6.738;2023-11-21T07:49:11;8.90;87.50
48551;DHT22;34397;51.176;6.738;2023-11-21T07:51:45;8.90;87.40
48551;DHT22;34397;51.176;6.738;2023-11-21T07:54:17;8.90;87.30
48551;DHT22;34397;51.176;6.738;2023-11-21T07:56:49;8.90;87.20
48551;DHT22;34397;51.176;6.738;2023-11-21T07:59:22;8.90;87.00
48551;DHT22;34397;51.176;6.738;2023-11-21T08:01:54;8.90;86.90
48551;DHT22;34397;51.176;6.738;2023-11-21T08:04:26;8.90;86.90
48551;DHT22;34397;51.176;6.738;2023-11-21T08:06:58;8.90;86.90
48551;DHT22;34397;51.176;6.738;2023-11-21T08:09:29;8.90;87.00
48551;DHT22;34397;51.176;6.738;2023-11-21T08:12:02;8.90;87.00
48551;DHT22;34397;51.176;6.738;2023-11-21T08:14:36;8.80;87.00
48551;DHT22;34397;51.176;6.738;2023-11-21T08:17:09;8.80;87.10
48551;DHT22;34397;51.176;6.738;2023-11-21T08:19:41;8.80;87.30
48551;DHT22;34397;51.176;6.738;2023-11-21T08:22:13;8.80;87.50
48551;DHT22;34397;51.176;6.738;2023-11-21T08:24:46;8.80;87.50
48551;DHT22;34397;51.176;6.738;2023-11-21T08:27:18;8.90;87.60
48551;DHT22;34397;51.176;6.738;2023-11-21T08:29:51;8.80;87.30
48551;DHT22;34397;51.176;6.738;2023-11-21T08:32:23;8.80;87.30
48551;DHT22;34397;51.176;6.738;2023-11-21T08:34:55;8.80;87.60
48551;DHT22;34397;51.176;6.738;2023-11-21T08:37:27;8.80;87.40
48551;DHT22;34397;51.176;6.738;2023-11-21T08:40:00;8.80;87.70
48551;DHT22;34397;51.176;6.738;2023-11-21T08:42:32;8.80;87.60
48551;DHT22;34397;51.176;6.738;2023-11-21T08:45:07;8.80;87.60
48551;DHT22;34397;51.176;6.738;2023-11-21T08:47:40;8.80;87.70
48551;DHT22;34397;51.176;6.738;2023-11-21T08:50:14;8.90;87.80
48551;DHT22;34397;51.176;6.738;2023-11-21T08:52:47;8.90;87.90
48551;DHT22;34397;51.176;6.738;2023-11-21T08:55:19;8.90;88.00
48551;DHT22;34397;51.176;6.738;2023-11-21T08:57:51;8.90;88.00
48551;DHT22;34397;51.176;6.738;2023-11-21T09:00:24;9.00;88.00
48551;DHT22;34397;51.176;6.738;2023-11-21T09:02:56;9.00;87.90
48551;DHT22;34397;51.176;6.738;2023-11-21T09:05:28;9.10;87.80
48551;DHT22;34397;51.176;6.738;2023-11-21T09:08:00;9.10;87.80
48551;DHT22;34397;51.176;6.738;2023-11-21T09:10:33;9.10;87.70
48551;DHT22;34397;51.176;6.738;2023-11-21T09:13:06;9.10;87.80
48551;DHT22;34397;51.176;6.738;2023-11-21T09:15:40;9.20;87.70
48551;DHT22;34397;51.176;6.738;2023-11-21T09:18:14;9.20;87.60
48551;DHT22;34397;51.176;6.738;2023-11-21T09:20:46;9.20;87.60
48551;DHT22;34397;51.176;6.738;2023-11-21T09:23:18;9.30;87.30
48551;DHT22;34397;51.176;6.738;2023-11-21T09:25:51;9.30;87.20
48551;DHT22;34397;51.176;6.738;2023-11-21T09:28:27;9.30;87.20
48551;DHT22;34397;51.176;6.738;2023-11-21T09:31:00;9.30;87.10
48551;DHT22;34397;51.176;6.738;2023-11-21T09:33:33;9.30;87.00
48551;DHT22;34397;51.176;6.738;2023-11-21T09:36:10;9.40;86.90
48551;DHT22;34397;51.176;6.738;2023-11-21T09:38:43;9.40;86.90
48551;DHT22;34397;51.176;6.738;2023-11-21T09:41:21;9.40;87.40
48551;DHT22;34397;51.176;6.738;2023-11-21T09:43:57;9.40;86.70
48551;DHT22;34397;51.176;6.738;2023-11-21T09:46:32;9.40;86.90
48551;DHT22;34397;51.176;6.738;2023-11-21T09:49:06;9.40;87.20
48551;DHT22;34397;51.176;6.738;2023-11-21T09:51:43;9.40;87.10
48551;DHT22;34397;51.176;6.738;2023-11-21T09:54:15;9.40;86.90
48551;DHT22;34397;51.176;6.738;2023-11-21T09:56:50;9.40;86.90
48551;DHT22;34397;51.176;6.738;2023-11-21T09:59:21;9.50;86.80
48551;DHT22;34397;51.176;6.738;2023-11-21T10:01:55;9.50;86.80
48551;DHT22;34397;51.176;6.738;2023-11-21T10:04:28;9.60;86.80
48551;DHT22;34397;51.176;6.738;2023-11-21T10:07:01;9.50;86.70
48551;DHT22;34397;51.176;6.738;2023-11-21T10:09:34;9.60;86.80
48551;DHT22;34397;51.176;6.738;2023-11-21T10:12:07;9.60;87.00
48551;DHT22;34397;51.176;6.738;2023-11-21T10:14:41;9.60;87.00
48551;DHT22;34397;51.176;6.738;2023-11-21T10:17:15;9.60;86.70
48551;DHT22;34397;51.176;6.738;2023-11-21T10:19:50;9.60;86.70
48551;DHT22;34397;51.176;6.738;2023-11-21T10:22:24;9.70;86.90
48551;DHT22;34397;51.176;6.738;2023-11-21T10:24:56;9.70;86.80
48551;DHT22;34397;51.176;6.738;2023-11-21T10:27:28;9.70;86.90
48551;DHT22;34397;51.176;6.738;2023-11-21T10:30:00;9.80;87.00
48551;DHT22;34397;51.176;6.738;2023-11-21T10:32:34;9.80;86.80
48551;DHT22;34397;51.176;6.738;2023-11-21T10:35:07;9.90;86.50
48551;DHT22;34397;51.176;6.738;2023-11-21T10:37:40;9.90;86.30
48551;DHT22;34397;51.176;6.738;2023-11-21T10:40:13;9.90;86.30
48551;DHT22;34397;51.176;6.738;2023-11-21T10:42:45;9.90;86.10
48551;DHT22;34397;51.176;6.738;2023-11-21T10:45:17;10.00;86.00
48551;DHT22;34397;51.176;6.738;2023-11-21T10:47:51;10.00;86.00
48551;DHT22;34397;51.176;6.738;2023-11-21T10:50:23;10.00;85.80
48551;DHT22;34397;51.176;6.738;2023-11-21T10:52:56;10.00;85.50
48551;DHT22;34397;51.176;6.738;2023-11-21T10:55:28;10.00;85.70
48551;DHT22;34397;51.176;6.738;2023-11-21T10:58:01;10.00;85.90
48551;DHT22;34397;51.176;6.738;2023-11-21T11:00:34;10.00;86.00
48551;DHT22;34397;51.176;6.738;2023-11-21T11:03:08;10.10;86.00
48551;DHT22;34397;51.176;6.738;2023-11-21T11:05:44;10.00;85.90
48551;DHT22;34397;51.176;6.738;2023-11-21T11:08:22;10.10;85.90
48551;DHT22;34397;51.176;6.738;2023-11-21T11:10:56;10.10;85.90
48551;DHT22;34397;51.176;6.738;2023-11-21T11:13:29;10.20;85.70
48551;DHT22;34397;51.176;6.738;2023-11-21T11:16:01;10.20;85.60
48551;DHT22;34397;51.176;6.738;2023-11-21T11:18:35;10.30;85.50
48551;DHT22;34397;51.176;6.738;2023-11-21T11:21:27;10.30;85.10
48551;DHT22;34397;51.176;6.738;2023-11-21T11:24:13;10.30;84.90
48551;DHT22;34397;51.176;6.738;2023-11-21T11:26:56;10.30;85.40
48551;DHT22;34397;51.176;6.738;2023-11-21T11:29:35;10.40;85.20
48551;DHT22;34397;51.176;6.738;2023-11-21T11:32:22;10.40;84.40
48551;DHT22;34397;51.176;6.738;2023-11-21T11:35:04;10.30;84.40
48551;DHT22;34397;51.176;6.738;2023-11-21T11:37:41;10.40;84.40
48551;DHT22;34397;51.176;6.738;2023-11-21T11:40:13;10.30;84.60
48551;DHT22;34397;51.176;6.738;2023-11-21T11:43:00;10.40;84.60
48551;DHT22;34397;51.176;6.738;2023-11-21T11:45:35;10.30;84.00
48551;DHT22;34397;51.176;6.738;2023-11-21T11:48:11;10.30;84.30
48551;DHT22;34397;51.176;6.738;2023-11-21T11:51:04;10.30;84.50
48551;DHT22;34397;51.176;6.738;2023-11-21T11:53:40;10.30;84.80
48551;DHT22;34397;51.176;6.738;2023-11-21T11:56:27;10.30;84.90
48551;DHT22;34397;51.176;6.738;2023-11-21T11:59:03;10.30;85.00
48551;DHT22;34397;51.176;6.738;2023-11-21T12:01:35;10.40;85.00
48551;DHT22;34397;51.176;6.738;2023-11-21T12:04:27;10.40;85.20
48551;DHT22;34397;51.176;6.738;2023-11-21T12:07:06;10.40;85.10
48551;DHT22;34397;51.176;6.738;2023-11-21T12:09:37;10.40;85.00
48551;DHT22;34397;51.176;6.738;2023-11-21T12:12:09;10.50;85.00
48551;DHT22;34397;51.176;6.738;2023-11-21T12:14:41;10.50;84.90
48551;DHT22;34397;51.176;6.738;2023-11-21T12:17:13;10.60;84.90
48551;DHT22;34397;51.176;6.738;2023-11-21T12:19:45;10.70;84.90
48551;DHT22;34397;51.176;6.738;2023-11-21T12:22:18;10.70;84.80
48551;DHT22;34397;51.176;6.738;2023-11-21T12:24:50;10.80;84.50
48551;DHT22;34397;51.176;6.738;2023-11-21T12:27:22;10.90;84.10
48551;DHT22;34397;51.176;6.738;2023-11-21T12:29:54;10.90;84.00
48551;DHT22;34397;51.176;6.738;2023-11-21T12:32:26;11.00;84.30
48551;DHT22;34397;51.176;6.738;2023-11-21T12:34:58;11.00;83.50
48551;DHT22;34397;51.176;6.738;2023-11-21T12:37:32;11.00;83.60
48551;DHT22;34397;51.176;6.738;2023-11-21T12:40:07;11.00;83.50
48551;DHT22;34397;51.176;6.738;2023-11-21T12:42:43;11.10;83.30
48551;DHT22;34397;51.176;6.738;2023-11-21T12:45:21;11.10;83.20
48551;DHT22;34397;51.176;6.738;2023-11-21T12:47:57;11.20;83.10
48551;DHT22;34397;51.176;6.738;2023-11-21T12:50:31;11.20;82.80
48551;DHT22;34397;51.176;6.738;2023-11-21T12:53:07;11.20;82.60
48551;DHT22;34397;51.176;6.738;2023-11-21T12:55:40;11.30;82.60
48551;DHT22;34397;51.176;6.738;2023-11-21T12:58:12;11.30;82.50
48551;DHT22;34397;51.176;6.738;2023-11-21T13:00:45;11.30;82.50
48551;DHT22;34397;51.176;6.738;2023-11-21T13:03:18;11.30;82.40
48551;DHT22;34397;51.176;6.738;2023-11-21T13:05:56;11.30;82.30
48551;DHT22;34397;51.176;6.738;2023-11-21T13:08:30;11.30;82.10
48551;DHT22;34397;51.176;6.738;2023-11-21T13:11:04;11.30;81.70
48551;DHT22;34397;51.176;6.738;2023-11-21T13:13:40;11.30;81.60
48551;DHT22;34397;51.176;6.738;2023-11-21T13:16:14;11.30;81.50
48551;DHT22;34397;51.176;6.738;2023-11-21T13:18:46;11.30;81.60
48551;DHT22;34397;51.176;6.738;2023-11-21T13:21:17;11.30;81.50
48551;DHT22;34397;51.176;6.738;2023-11-21T13:23:51;11.30;81.60
48551;DHT22;34397;51.176;6.738;2023-11-21T13:26:23;11.30;81.70
48551;DHT22;34397;51.176;6.738;2023-11-21T13:28:56;11.30;81.70
48551;DHT22;34397;51.176;6.738;2023-11-21T13:31:29;11.30;81.70
48551;DHT22;34397;51.176;6.738;2023-11-21T13:34:03;11.30;81.70
48551;DHT22;34397;51.176;6.738;2023-11-21T13:36:38;11.30;81.70
48551;DHT22;34397;51.176;6.738;2023-11-21T13:39:14;11.20;81.50
48551;DHT22;34397;51.176;6.738;2023-11-21T13:41:48;11.20;81.60
48551;DHT22;34397;51.176;6.738;2023-11-21T13:44:21;11.20;81.70
48551;DHT22;34397;51.176;6.738;2023-11-21T13:46:59;11.10;81.70
48551;DHT22;34397;51.176;6.738;2023-11-21T13:49:31;11.10;81.80
48551;DHT22;34397;51.176;6.738;2023-11-21T13:52:11;11.10;82.00
48551;DHT22;34397;51.176;6.738;2023-11-21T13:54:48;11.00;82.00
48551;DHT22;34397;51.176;6.738;2023-11-21T13:57:21;11.10;82.30
48551;DHT22;34397;51.176;6.738;2023-11-21T13:59:52;11.00;82.20
48551;DHT22;34397;51.176;6.738;2023-11-21T14:02:25;11.10;82.40
48551;DHT22;34397;51.176;6.738;2023-11-21T14:05:05;11.00;82.20
48551;DHT22;34397;51.176;6.738;2023-11-21T14:07:40;11.00;82.20
48551;DHT22;34397;51.176;6.738;2023-11-21T14:10:19;11.00;82.20
48551;DHT22;34397;51.176;6.738;2023-11-21T14:12:53;11.00;82.30
48551;DHT22;34397;51.176;6.738;2023-11-21T14:15:26;11.00;82.30
48551;DHT22;34397;51.176;6.738;2023-11-21T14:17:59;11.00;82.40
48551;DHT22;34397;51.176;6.738;2023-11-21T14:20:36;10.90;82.40
48551;DHT22;34397;51.176;6.738;2023-11-21T14:23:10;10.90;82.40
48551;DHT22;34397;51.176;6.738;2023-11-21T14:25:44;10.90;82.50
48551;DHT22;34397;51.176;6.738;2023-11-21T14:28:16;10.90;82.40
48551;DHT22;34397;51.176;6.738;2023-11-21T14:30:49;10.90;82.30
48551;DHT22;34397;51.176;6.738;2023-11-21T14:33:21;10.90;82.40
48551;DHT22;34397;51.176;6.738;2023-11-21T14:35:53;10.80;82.50
48551;DHT22;34397;51.176;6.738;2023-11-21T14:38:25;10.80;82.70
48551;DHT22;34397;51.176;6.738;2023-11-21T14:40:59;10.80;82.90
48551;DHT22;34397;51.176;6.738;2023-11-21T14:43:31;10.70;83.00
48551;DHT22;34397;51.176;6.738;2023-11-21T14:46:05;10.70;83.10
48551;DHT22;34397;51.176;6.738;2023-11-21T14:48:40;10.70;83.20
48551;DHT22;34397;51.176;6.738;2023-11-21T14:51:13;10.70;83.30
48551;DHT22;34397;51.176;6.738;2023-11-21T14:53:58;10.60;83.20
48551;DHT22;34397;51.176;6.738;2023-11-21T14:56:38;10.60;83.20
48551;DHT22;34397;51.176;6.738;2023-11-21T14:59:13;10.60;83.50
48551;DHT22;34397;51.176;6.738;2023-11-21T15:01:46;10.60;83.50
48551;DHT22;34397;51.176;6.738;2023-11-21T15:04:25;10.50;83.60
48551;DHT22;34397;51.176;6.738;2023-11-21T15:07:06;10.50;83.70
48551;DHT22;34397;51.176;6.738;2023-11-21T15:09:38;10.50;83.80
48551;DHT22;34397;51.176;6.738;2023-11-21T15:12:13;10.50;83.80
48551;DHT22;34397;51.176;6.738;2023-11-21T15:14:51;10.50;83.90
48551;DHT22;34397;51.176;6.738;2023-11-21T15:17:25;10.40;83.90
48551;DHT22;34397;51.176;6.738;2023-11-21T15:20:01;10.40;84.00
48551;DHT22;34397;51.176;6.738;2023-11-21T15:22:38;10.40;84.00
48551;DHT22;34397;51.176;6.738;2023-11-21T15:25:16;10.30;84.00
48551;DHT22;34397;51.176;6.738;2023-11-21T15:27:49;10.40;84.10
48551;DHT22;34397;51.176;6.738;2023-11-21T15:30:22;10.30;84.10
48551;DHT22;34397;51.176;6.738;2023-11-21T15:33:00;10.30;84.20
48551;DHT22;34397;51.176;6.738;2023-11-21T15:35:34;10.30;84.20
48551;DHT22;34397;51.176;6.738;2023-11-21T15:38:08;10.30;84.30
48551;DHT22;34397;51.176;6.738;2023-11-21T15:40:48;10.30;85.00
48551;DHT22;34397;51.176;6.738;2023-11-21T15:43:21;10.30;84.50
48551;DHT22;34397;51.176;6.738;2023-11-21T15:53:25;10.30;84.40
48551;DHT22;34397;51.176;6.738;2023-11-21T15:55:56;10.30;84.40
48551;DHT22;34397;51.176;6.738;2023-11-21T15:58:30;10.30;85.20
48551;DHT22;34397;51.176;6.738;2023-11-21T16:01:05;10.30;84.70
48551;DHT22;34397;51.176;6.738;2023-11-21T16:03:39;10.30;84.80
48551;DHT22;34397;51.176;6.738;2023-11-21T16:06:11;10.30;84.90
48551;DHT22;34397;51.176;6.738;2023-11-21T16:08:43;10.30;84.90
48551;DHT22;34397;51.176;6.738;2023-11-21T16:11:15;10.30;84.90
48551;DHT22;34397;51.176;6.738;2023-11-21T16:13:55;10.30;85.00
48551;DHT22;34397;51.176;6.738;2023-11-21T16:16:34;10.30;84.90
48551;DHT22;34397;51.176;6.738;2023-11-21T16:19:06;10.30;85.00
48551;DHT22;34397;51.176;6.738;2023-11-21T16:21:42;10.20;84.80
48551;DHT22;34397;51.176;6.738;2023-11-21T16:24:14;10.30;84.60
48551;DHT22;34397;51.176;6.738;2023-11-21T16:26:47;10.20;84.60